Terminal Aerodrome Forecast
Issued by NWS Cleveland, OH

Home | Current Version | Previous Version | Graphics & Text | Print | Product List | Glossary On
Versions: 1 2 3 4 5 6 7 8 9 10 11 12 13 14 15 16 17 18 19 20 21 22 23 24 25 26
000
FTUS41 KCLE 161000 AAA
TAFCAK
TAF AMD
KCAK 161009Z 1610/1706 17008KT 5SM BR SCT025 BKN035
      TEMPO 1610/1612 6SM -SHRA BR OVC015
     FM161200 20010KT 5SM -RA BR SCT008 OVC015
     FM161400 21010KT 4SM -SHRA BR OVC008
     FM162100 24010KT 5SM -SHRA BR OVC006=

USA.gov is the U.S. government's official web portal to all federal, state and local government web resources and services.